Time;durP1;ratioP1;P1;durP2;ratioP2;P2;SDS_P1;SDS_P2;PMS_P1;PMS_P2;Temp;Humidity;BMP_temperature;BMP_pressure;BME280_temperature;BME280_humidity;BME280_pressure;Samples;Min_cycle;Max_cycle;Signal;HPM_P1;HPM_P2
2022/10/10 00:01:26;;;;;;;2.97;2.13;;;12.60;99.90;;;;;;4175450;28;20115;-69
2022/10/10 00:03:27;;;;;;;6.97;2.20;;;12.50;99.90;;;;;;4180376;28;20104;-68
2022/10/10 00:05:27;;;;;;;3.90;2.17;;;12.60;99.90;;;;;;4179768;28;20040;-69
2022/10/10 00:07:28;;;;;;;4.78;2.30;;;12.50;99.90;;;;;;4180399;28;20040;-69
2022/10/10 00:09:29;;;;;;;3.38;2.20;;;12.50;99.90;;;;;;4174629;28;20044;-69
2022/10/10 00:11:30;;;;;;;3.97;2.40;;;12.50;99.90;;;;;;4173831;28;20435;-69
2022/10/10 00:13:31;;;;;;;5.22;2.30;;;12.50;99.90;;;;;;4196452;28;20507;-67
2022/10/10 00:15:32;;;;;;;4.05;2.40;;;12.50;99.90;;;;;;4195763;28;20043;-68
2022/10/10 00:17:32;;;;;;;4.00;2.30;;;12.40;99.90;;;;;;4196622;28;20123;-69
2022/10/10 00:19:33;;;;;;;3.83;2.50;;;12.40;99.90;;;;;;4191741;28;20037;-69
2022/10/10 00:21:34;;;;;;;4.57;2.50;;;12.40;99.90;;;;;;4190887;28;20036;-68
2022/10/10 00:23:35;;;;;;;3.70;2.25;;;12.30;99.90;;;;;;4196537;28;20112;-68
2022/10/10 00:25:36;;;;;;;5.18;2.50;;;12.30;99.90;;;;;;4181436;28;20128;-69
2022/10/10 00:27:37;;;;;;;3.70;2.50;;;12.30;99.90;;;;;;4179873;28;20029;-69
2022/10/10 00:29:38;;;;;;;4.05;2.47;;;12.30;99.90;;;;;;4183244;28;20541;-69
2022/10/10 00:31:38;;;;;;;3.58;2.58;;;12.30;99.90;;;;;;4172326;28;20116;-68
2022/10/10 00:33:39;;;;;;;5.43;2.53;;;12.40;99.90;;;;;;4196352;28;20029;-69
2022/10/10 00:35:39;;;;;;;3.72;2.70;;;12.40;99.90;;;;;;4195188;28;20098;-68
2022/10/10 00:37:40;;;;;;;4.30;2.55;;;12.30;99.90;;;;;;4196167;28;20044;-68
2022/10/10 00:39:41;;;;;;;4.72;2.65;;;12.40;99.90;;;;;;4173932;28;20052;-69
2022/10/10 00:41:41;;;;;;;3.80;2.38;;;12.40;99.90;;;;;;4191351;28;20039;-69
2022/10/10 00:43:42;;;;;;;5.00;2.67;;;12.40;99.90;;;;;;4195325;28;20454;-68
2022/10/10 00:45:45;;;;;;;3.67;2.25;;;12.40;99.90;;;;;;4183934;28;20495;-68
2022/10/10 00:47:47;;;;;;;3.92;2.40;;;12.40;99.90;;;;;;4179705;28;20040;-69
2022/10/10 00:49:47;;;;;;;4.05;2.33;;;12.50;99.90;;;;;;4181466;28;20037;-69
2022/10/10 00:51:51;;;;;;;3.90;2.40;;;12.50;99.90;;;;;;4188727;28;20106;-69
2022/10/10 00:54:13;;;;;;;3.03;2.28;;;12.50;99.90;;;;;;4196206;28;20494;-69
2022/10/10 00:56:17;;;;;;;2.67;2.08;;;12.50;99.90;;;;;;4178164;28;20040;-69
2022/10/10 00:58:18;;;;;;;3.78;2.50;;;12.50;99.90;;;;;;4179361;28;20067;-69
2022/10/10 01:00:19;;;;;;;4.47;2.50;;;12.50;99.90;;;;;;4167909;28;20128;-69
2022/10/10 01:02:20;;;;;;;4.78;3.10;;;12.50;99.90;;;;;;4163585;28;20076;-69
2022/10/10 01:04:41;;;;;;;4.72;2.63;;;12.50;99.90;;;;;;4162892;28;20128;-69
2022/10/10 01:06:42;;;;;;;5.20;3.00;;;12.50;99.90;;;;;;4159602;28;20377;-69
2022/10/10 01:08:43;;;;;;;5.07;3.00;;;12.50;99.90;;;;;;4177747;28;20040;-69
2022/10/10 01:11:06;;;;;;;7.35;3.55;;;12.50;99.90;;;;;;4163216;28;20025;-68
2022/10/10 01:13:34;;;;;;;6.43;3.00;;;12.50;99.90;;;;;;4105566;28;20030;-69
2022/10/10 01:15:58;;;;;;;4.53;3.10;;;12.50;99.90;;;;;;4149580;28;20052;-69
2022/10/10 01:18:22;;;;;;;5.35;3.28;;;12.40;99.90;;;;;;4152290;28;20041;-68
2022/10/10 01:20:42;;;;;;;5.45;3.13;;;12.40;99.90;;;;;;4164786;28;20052;-69
2022/10/10 01:23:11;;;;;;;4.40;3.10;;;12.40;99.90;;;;;;4171588;28;20127;-69
2022/10/10 01:25:50;;;;;;;4.80;3.33;;;12.30;99.90;;;;;;4172960;28;20543;-69
2022/10/10 01:27:58;;;;;;;7.07;3.40;;;12.30;99.90;;;;;;4149280;28;20390;-70
2022/10/10 01:30:04;;;;;;;4.35;2.97;;;12.30;99.90;;;;;;4170072;28;20063;-69
2022/10/10 01:32:15;;;;;;;5.13;3.42;;;12.30;99.90;;;;;;4162726;28;20033;-68
2022/10/10 01:34:53;;;;;;;4.38;3.40;;;12.30;99.90;;;;;;4162595;28;20189;-69
2022/10/10 01:37:12;;;;;;;7.72;4.43;;;12.30;99.90;;;;;;4058819;29;20476;-69
2022/10/10 01:39:24;;;;;;;7.03;4.15;;;12.30;99.90;;;;;;4138453;28;20041;-69
2022/10/10 01:41:31;;;;;;;7.50;3.83;;;12.20;99.90;;;;;;4174116;28;20032;-69
2022/10/10 01:43:32;;;;;;;6.85;3.78;;;12.20;99.90;;;;;;4166946;28;20034;-68
2022/10/10 01:45:33;;;;;;;6.15;3.75;;;12.20;99.90;;;;;;4161728;28;20060;-68
2022/10/10 01:47:34;;;;;;;5.75;3.58;;;12.20;99.90;;;;;;4176992;28;20025;-69
2022/10/10 01:49:34;;;;;;;4.32;3.08;;;12.20;99.90;;;;;;4175276;28;20056;-68
2022/10/10 01:52:06;;;;;;;5.55;3.50;;;12.10;99.90;;;;;;4166667;28;20034;-68
2022/10/10 01:54:36;;;;;;;3.70;2.97;;;12.10;99.90;;;;;;4145542;28;20026;-69
2022/10/10 01:57:09;;;;;;;6.68;3.60;;;12.10;99.90;;;;;;4165960;28;20095;-69
2022/10/10 01:59:47;;;;;;;5.55;3.35;;;12.00;99.90;;;;;;4175076;28;20675;-69
2022/10/10 02:02:00;;;;;;;7.55;3.15;;;11.90;99.90;;;;;;4173060;28;20056;-68
2022/10/10 02:04:26;;;;;;;5.38;3.38;;;11.90;99.90;;;;;;4177903;28;20084;-67
2022/10/10 02:06:42;;;;;;;5.35;2.90;;;11.90;99.90;;;;;;4168025;28;20036;-68
2022/10/10 02:08:57;;;;;;;7.18;3.30;;;11.90;99.90;;;;;;4161478;28;20053;-69
2022/10/10 02:11:01;;;;;;;5.13;2.85;;;11.90;99.90;;;;;;4170038;28;20075;-68
2022/10/10 02:13:04;;;;;;;4.00;2.80;;;11.80;99.90;;;;;;4174952;28;20037;-67
2022/10/10 02:15:13;;;;;;;5.22;3.08;;;11.80;99.90;;;;;;4177678;28;20068;-69
2022/10/10 02:17:14;;;;;;;5.70;3.13;;;11.80;99.90;;;;;;4171734;28;20060;-68
2022/10/10 02:19:19;;;;;;;4.55;2.88;;;11.80;99.90;;;;;;4145923;28;20374;-68
2022/10/10 02:21:21;;;;;;;5.28;2.60;;;11.80;99.90;;;;;;4168872;28;20413;-68
2022/10/10 02:23:22;;;;;;;6.10;2.65;;;11.80;99.90;;;;;;4176501;28;20043;-68
2022/10/10 02:25:28;;;;;;;4.13;2.88;;;11.80;99.90;;;;;;4177315;28;20104;-69
2022/10/10 02:27:50;;;;;;;5.45;3.25;;;11.80;99.90;;;;;;4177552;28;20029;-68
2022/10/10 02:29:53;;;;;;;5.30;2.78;;;11.80;99.90;;;;;;4170177;28;20060;-68
2022/10/10 02:32:05;;;;;;;4.32;2.80;;;11.70;99.90;;;;;;4164233;28;20037;-68
2022/10/10 02:34:28;;;;;;;3.42;2.05;;;11.80;99.90;;;;;;4177698;28;20033;-68
2022/10/10 02:36:30;;;;;;;4.53;2.50;;;11.80;99.90;;;;;;4177047;28;20112;-67
2022/10/10 02:38:31;;;;;;;4.60;3.07;;;11.70;99.90;;;;;;4178024;28;20040;-68
2022/10/10 02:40:34;;;;;;;4.43;2.50;;;11.70;99.90;;;;;;4165965;28;20037;-66
2022/10/10 02:42:36;;;;;;;5.13;2.95;;;11.70;99.90;;;;;;4156754;28;20060;-68
2022/10/10 02:44:38;;;;;;;6.60;3.30;;;11.70;99.90;;;;;;4145197;28;20512;-68
2022/10/10 02:46:39;;;;;;;3.80;2.60;;;11.70;99.90;;;;;;4144088;28;20037;-68
2022/10/10 02:48:41;;;;;;;10.30;2.92;;;11.70;99.90;;;;;;4157222;28;20033;-68
2022/10/10 02:50:42;;;;;;;5.70;2.90;;;11.70;99.90;;;;;;4148594;28;20413;-69
2022/10/10 02:52:43;;;;;;;3.78;2.65;;;11.60;99.90;;;;;;4161503;28;20029;-68
2022/10/10 02:54:43;;;;;;;4.97;2.45;;;11.60;99.90;;;;;;4161686;28;20029;-68
2022/10/10 02:56:44;;;;;;;4.50;2.40;;;11.60;99.90;;;;;;4160796;28;20029;-68
2022/10/10 02:58:44;;;;;;;3.50;2.25;;;11.60;99.90;;;;;;4176422;28;20040;-68
2022/10/10 03:00:45;;;;;;;3.40;2.28;;;11.60;99.90;;;;;;4164306;28;20029;-69
2022/10/10 03:02:46;;;;;;;4.38;2.25;;;11.60;99.90;;;;;;4161416;28;20128;-68
2022/10/10 03:04:46;;;;;;;4.03;2.42;;;11.60;99.90;;;;;;4161340;28;20435;-68
2022/10/10 03:06:47;;;;;;;4.00;2.35;;;11.60;99.90;;;;;;4161034;28;20116;-68
2022/10/10 03:08:47;;;;;;;3.10;2.20;;;11.60;99.90;;;;;;4164458;28;20030;-69
2022/10/10 03:10:59;;;;;;;3.47;2.33;;;11.60;99.90;;;;;;4175097;28;20533;-69
2022/10/10 03:13:00;;;;;;;4.35;2.47;;;11.60;99.90;;;;;;4161349;28;20043;-69
2022/10/10 03:15:01;;;;;;;3.75;2.10;;;11.60;99.90;;;;;;4164256;28;20115;-67
2022/10/10 03:17:01;;;;;;;4.50;2.63;;;11.60;99.90;;;;;;4163676;28;20083;-67
2022/10/10 03:19:02;;;;;;;3.63;2.00;;;11.60;99.90;;;;;;4164610;28;20072;-68
2022/10/10 03:21:03;;;;;;;6.18;2.55;;;11.60;99.90;;;;;;4158233;28;20026;-68
2022/10/10 03:23:03;;;;;;;3.53;2.30;;;11.60;99.90;;;;;;4162883;28;20353;-69
2022/10/10 03:25:05;;;;;;;2.45;1.75;;;11.60;99.90;;;;;;4180256;28;20420;-68
2022/10/10 03:27:05;;;;;;;4.70;2.45;;;11.60;99.90;;;;;;4180408;28;20033;-68
2022/10/10 03:29:06;;;;;;;6.85;2.20;;;11.60;99.90;;;;;;4178355;28;20486;-68
2022/10/10 03:31:06;;;;;;;4.30;2.35;;;11.60;99.90;;;;;;4168694;28;20033;-68
2022/10/10 03:33:08;;;;;;;5.05;2.55;;;11.60;99.90;;;;;;4180775;28;20033;-67
2022/10/10 03:35:08;;;;;;;3.70;2.50;;;11.60;99.90;;;;;;4146424;28;20500;-70
2022/10/10 03:37:09;;;;;;;2.65;2.10;;;11.60;99.90;;;;;;4164310;28;20087;-67
2022/10/10 03:39:10;;;;;;;3.63;2.50;;;11.60;99.90;;;;;;4168037;28;20041;-67
2022/10/10 03:41:10;;;;;;;3.63;2.08;;;11.50;99.90;;;;;;4175923;28;20037;-67
2022/10/10 03:43:13;;;;;;;3.55;2.25;;;11.60;99.90;;;;;;4180715;28;20367;-68
2022/10/10 03:45:14;;;;;;;4.50;2.33;;;11.60;99.90;;;;;;4161973;28;20049;-68
2022/10/10 03:47:14;;;;;;;3.50;2.25;;;11.60;99.90;;;;;;4162923;28;20030;-68
2022/10/10 03:49:15;;;;;;;3.75;2.58;;;11.50;99.90;;;;;;4176767;28;20029;-68
2022/10/10 03:51:16;;;;;;;4.82;2.50;;;11.50;99.90;;;;;;4165191;28;20033;-68
2022/10/10 03:53:16;;;;;;;3.15;2.15;;;11.40;99.90;;;;;;4164090;28;20061;-68
2022/10/10 03:55:17;;;;;;;3.67;2.17;;;11.50;99.90;;;;;;4176550;28;20399;-68
2022/10/10 03:57:17;;;;;;;4.20;2.30;;;11.50;99.90;;;;;;4180626;28;20052;-68
2022/10/10 03:59:18;;;;;;;4.68;2.55;;;11.50;99.90;;;;;;4176284;28;20037;-68
2022/10/10 04:01:18;;;;;;;4.20;2.47;;;11.50;99.90;;;;;;4169473;28;20491;-68
2022/10/10 04:03:19;;;;;;;2.58;1.88;;;11.50;99.90;;;;;;4161733;28;20052;-68
2022/10/10 04:05:20;;;;;;;4.18;2.47;;;11.50;99.90;;;;;;4167755;28;20041;-69
2022/10/10 04:07:21;;;;;;;4.97;2.20;;;11.40;99.90;;;;;;4164054;28;20037;-68
2022/10/10 04:09:22;;;;;;;3.58;2.08;;;11.40;99.90;;;;;;4147246;28;20029;-69
2022/10/10 04:11:22;;;;;;;3.38;2.10;;;11.40;99.90;;;;;;4171080;28;20515;-68
2022/10/10 04:13:27;;;;;;;3.10;2.50;;;11.40;99.90;;;;;;4162324;28;20026;-68
2022/10/10 04:15:27;;;;;;;3.92;2.00;;;11.50;99.90;;;;;;4179003;28;20036;-68
2022/10/10 04:17:28;;;;;;;3.47;2.70;;;11.40;99.90;;;;;;4180147;28;20465;-69
2022/10/10 04:19:28;;;;;;;4.05;2.50;;;11.40;99.90;;;;;;4174984;28;20385;-68
2022/10/10 04:21:29;;;;;;;4.97;2.70;;;11.40;99.90;;;;;;4171325;28;20044;-68
2022/10/10 04:23:30;;;;;;;3.97;2.67;;;11.40;99.90;;;;;;4180057;28;20021;-67
2022/10/10 04:25:31;;;;;;;6.78;2.28;;;11.40;99.90;;;;;;4178652;28;20033;-68
2022/10/10 04:27:31;;;;;;;3.65;2.55;;;11.40;99.90;;;;;;4179750;28;20048;-68
2022/10/10 04:29:32;;;;;;;3.70;2.33;;;11.30;99.90;;;;;;4176158;28;20065;-68
2022/10/10 04:31:32;;;;;;;3.08;2.20;;;11.30;99.90;;;;;;4168211;28;20026;-68
2022/10/10 04:33:33;;;;;;;2.92;2.15;;;11.30;99.90;;;;;;4163561;28;20392;-68
2022/10/10 04:35:34;;;;;;;4.30;2.28;;;11.40;99.90;;;;;;4170485;28;20087;-69
2022/10/10 04:37:34;;;;;;;4.07;2.45;;;11.40;99.90;;;;;;4179794;28;20036;-68
2022/10/10 04:39:35;;;;;;;5.50;2.35;;;11.30;99.90;;;;;;4175982;28;20143;-68
2022/10/10 04:41:35;;;;;;;5.30;2.60;;;11.30;99.90;;;;;;4165715;28;20057;-67
2022/10/10 04:43:36;;;;;;;3.90;2.60;;;11.30;99.90;;;;;;4163119;28;20034;-68
2022/10/10 04:45:37;;;;;;;4.10;2.70;;;11.30;99.90;;;;;;4168636;28;20037;-68
2022/10/10 04:47:37;;;;;;;4.07;2.70;;;11.30;99.90;;;;;;4179469;28;20484;-68
2022/10/10 04:49:40;;;;;;;4.53;2.65;;;11.30;99.90;;;;;;4164176;28;20034;-69
2022/10/10 04:51:41;;;;;;;5.28;2.83;;;11.30;99.90;;;;;;4160206;28;20041;-69
2022/10/10 04:53:42;;;;;;;3.38;2.58;;;11.20;99.90;;;;;;4162975;28;20037;-68
2022/10/10 04:55:43;;;;;;;3.33;2.33;;;11.20;99.90;;;;;;4162407;28;20039;-68
2022/10/10 04:57:44;;;;;;;5.15;2.92;;;11.20;99.90;;;;;;4162979;28;20044;-69
2022/10/10 04:59:44;;;;;;;5.13;2.75;;;11.20;99.90;;;;;;4165483;28;20033;-68
2022/10/10 05:01:45;;;;;;;6.03;2.78;;;11.20;99.90;;;;;;4170683;28;20029;-69
2022/10/10 05:03:45;;;;;;;4.05;2.88;;;11.30;99.90;;;;;;4179363;28;20108;-68
2022/10/10 05:05:46;;;;;;;6.45;2.92;;;11.30;99.90;;;;;;4170440;28;20155;-68
2022/10/10 05:07:46;;;;;;;5.10;2.78;;;11.30;99.90;;;;;;4178627;28;20116;-69
2022/10/10 05:09:47;;;;;;;6.80;3.28;;;11.20;99.90;;;;;;4169888;28;20052;-69
2022/10/10 05:11:48;;;;;;;5.03;3.28;;;11.20;99.90;;;;;;4174931;28;20108;-68
2022/10/10 05:13:49;;;;;;;6.35;3.10;;;11.30;99.90;;;;;;4179126;28;20033;-68
2022/10/10 05:15:51;;;;;;;4.97;3.10;;;11.20;99.90;;;;;;4160203;28;20033;-69
2022/10/10 05:17:52;;;;;;;5.88;2.92;;;11.20;99.90;;;;;;4146593;28;20120;-69
2022/10/10 05:19:53;;;;;;;5.97;3.40;;;11.20;99.90;;;;;;4171544;28;20116;-68
2022/10/10 05:21:53;;;;;;;4.78;3.15;;;11.20;99.90;;;;;;4163279;28;20045;-67
2022/10/10 05:23:54;;;;;;;4.78;2.80;;;11.20;99.90;;;;;;4163146;28;20112;-68
2022/10/10 05:25:54;;;;;;;5.07;3.08;;;11.20;99.90;;;;;;4163767;28;20037;-69
2022/10/10 05:27:55;;;;;;;5.80;3.22;;;11.20;99.90;;;;;;4157366;28;20990;-69
2022/10/10 05:29:56;;;;;;;4.63;2.80;;;11.10;99.90;;;;;;4157373;28;20050;-68
2022/10/10 05:31:56;;;;;;;4.32;2.90;;;11.10;99.90;;;;;;4162563;28;20369;-69
2022/10/10 05:33:57;;;;;;;7.20;3.63;;;11.10;99.90;;;;;;4156842;28;20425;-69
2022/10/10 05:36:16;;;;;;;7.53;3.10;;;11.10;99.90;;;;;;4155065;28;20034;-68
2022/10/10 05:38:16;;;;;;;4.72;3.10;;;11.10;99.90;;;;;;4171483;28;20033;-69
2022/10/10 05:40:17;;;;;;;5.32;3.40;;;11.00;99.90;;;;;;4171232;28;20064;-68
2022/10/10 05:42:17;;;;;;;4.63;3.10;;;11.00;99.90;;;;;;4157914;28;20088;-69
2022/10/10 05:44:18;;;;;;;5.63;3.08;;;11.00;99.90;;;;;;4165320;28;20036;-69
2022/10/10 05:46:20;;;;;;;4.72;2.92;;;11.00;99.90;;;;;;4165108;28;20030;-68
2022/10/10 05:48:21;;;;;;;6.85;3.03;;;11.00;99.90;;;;;;4166502;28;20060;-68
2022/10/10 05:50:31;;;;;;;4.60;3.20;;;11.00;99.90;;;;;;4158577;28;20044;-69
2022/10/10 05:52:34;;;;;;;3.75;2.70;;;11.10;99.90;;;;;;4153588;28;20033;-68
2022/10/10 05:54:34;;;;;;;4.63;2.78;;;11.00;99.90;;;;;;4144189;28;20045;-68
2022/10/10 05:56:35;;;;;;;6.15;3.10;;;11.00;99.90;;;;;;4151447;28;20033;-68
2022/10/10 05:58:36;;;;;;;4.55;2.78;;;11.00;99.90;;;;;;4150671;28;20076;-68
2022/10/10 06:00:36;;;;;;;4.80;2.95;;;11.00;99.90;;;;;;4161941;28;20033;-67
2022/10/10 06:02:37;;;;;;;6.68;3.17;;;11.00;99.90;;;;;;4159928;28;20045;-67
2022/10/10 06:04:37;;;;;;;7.30;3.45;;;11.00;99.90;;;;;;4169846;28;20062;-67
2022/10/10 06:06:38;;;;;;;7.25;3.05;;;11.00;99.90;;;;;;4165940;28;20135;-68
2022/10/10 06:08:39;;;;;;;7.40;2.80;;;11.00;99.90;;;;;;4161742;28;20076;-68
2022/10/10 06:10:42;;;;;;;5.82;2.92;;;11.10;99.90;;;;;;4156845;28;20123;-68
2022/10/10 06:12:43;;;;;;;3.70;2.50;;;11.00;99.90;;;;;;4146638;28;20049;-69
2022/10/10 06:14:44;;;;;;;5.55;3.25;;;11.00;99.90;;;;;;4160227;28;20029;-69
2022/10/10 06:16:44;;;;;;;6.80;3.33;;;11.00;99.90;;;;;;4168961;28;20492;-69
2022/10/10 06:18:45;;;;;;;5.53;3.22;;;11.00;99.90;;;;;;4169307;28;20028;-70
2022/10/10 06:20:46;;;;;;;7.60;3.55;;;11.00;99.90;;;;;;4170750;28;20369;-69
2022/10/10 06:22:46;;;;;;;4.50;2.85;;;11.00;99.90;;;;;;4166287;28;20080;-69
2022/10/10 06:24:47;;;;;;;6.15;3.10;;;11.00;99.90;;;;;;4163220;28;20094;-68
2022/10/10 06:26:47;;;;;;;4.53;2.60;;;11.00;99.90;;;;;;4161901;28;20029;-69
2022/10/10 06:28:49;;;;;;;5.97;3.08;;;11.00;99.90;;;;;;4167846;28;20042;-69
2022/10/10 06:30:50;;;;;;;4.65;2.90;;;11.00;99.90;;;;;;4165051;28;20037;-69
2022/10/10 06:32:52;;;;;;;5.72;2.92;;;11.10;99.90;;;;;;4162289;28;20041;-69
2022/10/10 06:34:52;;;;;;;4.80;2.75;;;11.10;99.90;;;;;;4165559;28;20036;-69
2022/10/10 06:36:53;;;;;;;5.10;3.35;;;11.10;99.90;;;;;;4166514;28;20033;-69
2022/10/10 06:38:53;;;;;;;7.78;3.10;;;11.10;99.90;;;;;;4165931;28;20061;-69
2022/10/10 06:40:54;;;;;;;7.38;3.40;;;11.20;99.90;;;;;;4165091;28;20041;-68
2022/10/10 06:42:54;;;;;;;4.60;2.95;;;11.20;99.90;;;;;;4162116;28;20036;-69
2022/10/10 06:44:55;;;;;;;5.70;3.28;;;11.20;99.90;;;;;;4161955;28;20037;-69
2022/10/10 06:46:55;;;;;;;6.07;3.45;;;11.30;99.90;;;;;;4164925;28;20037;-69
2022/10/10 06:48:56;;;;;;;6.30;3.40;;;11.30;99.90;;;;;;4164597;28;22992;-68
2022/10/10 06:51:05;;;;;;;5.60;3.60;;;11.30;99.90;;;;;;4164317;28;20064;-70
2022/10/10 06:53:06;;;;;;;9.75;3.75;;;11.30;99.90;;;;;;4161322;28;20366;-68
2022/10/10 06:55:08;;;;;;;11.55;4.97;;;11.40;99.90;;;;;;4163193;28;20121;-67
2022/10/10 06:57:08;;;;;;;15.38;7.00;;;11.50;99.90;;;;;;4161244;28;20175;-68
2022/10/10 06:59:09;;;;;;;13.85;6.28;;;11.40;99.90;;;;;;4162857;28;20480;-69
2022/10/10 07:01:10;;;;;;;13.85;6.55;;;11.50;99.90;;;;;;4165864;28;20069;-68
2022/10/10 07:03:11;;;;;;;12.18;6.25;;;11.60;99.90;;;;;;4167749;28;20033;-68
2022/10/10 07:05:15;;;;;;;11.93;6.35;;;11.60;99.90;;;;;;4159948;28;20042;-70
2022/10/10 07:07:16;;;;;;;10.05;5.90;;;11.60;99.90;;;;;;4163726;28;20054;-69
2022/10/10 07:09:17;;;;;;;11.00;5.28;;;11.60;99.90;;;;;;4166774;28;20492;-69
2022/10/10 07:11:18;;;;;;;11.80;5.18;;;11.70;99.90;;;;;;4166881;28;20040;-68
2022/10/10 07:13:19;;;;;;;10.02;4.90;;;11.70;99.90;;;;;;4170387;28;20037;-70
2022/10/10 07:15:19;;;;;;;8.07;4.07;;;11.80;99.90;;;;;;4172576;28;20029;-70
2022/10/10 07:17:20;;;;;;;5.93;3.75;;;11.80;99.90;;;;;;4165613;28;20133;-71
2022/10/10 07:19:23;;;;;;;7.18;4.00;;;11.90;99.90;;;;;;4164799;28;21054;-71
2022/10/10 07:21:24;;;;;;;5.63;2.88;;;11.80;99.90;;;;;;4159184;28;20099;-71
2022/10/10 07:23:25;;;;;;;8.25;3.60;;;11.90;99.90;;;;;;4157350;28;20037;-71
2022/10/10 07:25:26;;;;;;;6.40;3.75;;;12.00;99.90;;;;;;4167534;28;20033;-70
2022/10/10 07:27:27;;;;;;;3.40;2.72;;;12.00;99.90;;;;;;4149369;28;20041;-70
2022/10/10 07:29:29;;;;;;;5.13;3.00;;;12.10;99.90;;;;;;4165677;28;20400;-70
2022/10/10 07:31:29;;;;;;;8.05;3.00;;;12.10;99.90;;;;;;4154626;28;20117;-71
2022/10/10 07:33:38;;;;;;;8.05;3.25;;;12.20;99.90;;;;;;4149645;28;20042;-71
2022/10/10 07:35:39;;;;;;;7.30;3.38;;;12.30;99.90;;;;;;4165424;28;20091;-71
2022/10/10 07:37:40;;;;;;;5.18;3.15;;;12.30;99.90;;;;;;4165241;28;20097;-71
2022/10/10 07:39:41;;;;;;;4.53;2.95;;;12.40;99.90;;;;;;4165661;28;20500;-70
2022/10/10 07:41:41;;;;;;;5.47;3.00;;;12.50;99.90;;;;;;4144472;28;20132;-70
2022/10/10 07:43:42;;;;;;;5.85;2.90;;;12.60;99.90;;;;;;4165046;28;20508;-69
2022/10/10 07:45:43;;;;;;;6.03;3.03;;;12.70;99.90;;;;;;4162914;28;20538;-69
2022/10/10 07:47:43;;;;;;;4.38;2.78;;;12.80;99.90;;;;;;4164855;28;20038;-69
2022/10/10 07:49:44;;;;;;;5.97;2.83;;;12.90;99.90;;;;;;4161663;28;20061;-70
2022/10/10 07:51:44;;;;;;;6.65;3.15;;;13.00;99.90;;;;;;4164102;28;20033;-70
2022/10/10 07:53:45;;;;;;;6.13;3.25;;;13.10;99.90;;;;;;4165331;28;20401;-70
2022/10/10 07:55:46;;;;;;;5.93;3.08;;;13.20;99.90;;;;;;4167621;28;20048;-70
2022/10/10 07:57:46;;;;;;;6.38;2.88;;;13.30;99.90;;;;;;4166643;28;20033;-71
2022/10/10 07:59:47;;;;;;;4.30;2.67;;;13.50;99.90;;;;;;4162443;28;20044;-71
2022/10/10 08:01:48;;;;;;;8.50;3.13;;;13.70;99.90;;;;;;4156185;28;20060;-71
2022/10/10 08:03:48;;;;;;;4.88;2.97;;;13.90;99.90;;;;;;4170271;28;20037;-71
2022/10/10 08:05:49;;;;;;;5.78;3.25;;;14.10;99.90;;;;;;4170136;28;20037;-69
2022/10/10 08:07:49;;;;;;;6.20;2.47;;;14.40;99.90;;;;;;4175046;28;20433;-72
2022/10/10 08:09:50;;;;;;;7.43;3.28;;;14.70;99.90;;;;;;4157404;28;20030;-71
2022/10/10 08:11:50;;;;;;;7.05;3.00;;;15.00;99.90;;;;;;4160817;28;20216;-71
2022/10/10 08:13:51;;;;;;;6.63;2.80;;;15.30;99.90;;;;;;4162804;28;20045;-71
2022/10/10 08:15:52;;;;;;;7.85;2.58;;;15.50;99.90;;;;;;4167101;28;20052;-72
2022/10/10 08:17:53;;;;;;;4.18;2.38;;;15.70;99.90;;;;;;4155415;28;20029;-72
2022/10/10 08:19:53;;;;;;;4.05;2.55;;;15.90;99.90;;;;;;4174356;28;20099;-71
2022/10/10 08:21:54;;;;;;;6.18;2.80;;;16.00;99.90;;;;;;4151110;28;20057;-72
2022/10/10 08:23:55;;;;;;;7.97;2.55;;;16.20;99.90;;;;;;4171377;28;20029;-72
2022/10/10 08:26:00;;;;;;;5.30;2.88;;;16.30;99.90;;;;;;4167680;28;20037;-72
2022/10/10 08:28:01;;;;;;;5.25;2.85;;;16.40;99.90;;;;;;4166732;28;20125;-72
2022/10/10 08:30:01;;;;;;;5.90;2.60;;;16.50;99.90;;;;;;4163200;28;20033;-72
2022/10/10 08:32:02;;;;;;;4.22;2.53;;;16.60;99.90;;;;;;4171122;28;20037;-68
2022/10/10 08:34:02;;;;;;;5.05;2.20;;;16.70;99.90;;;;;;4169444;28;20091;-72
2022/10/10 08:36:08;;;;;;;3.85;2.30;;;16.70;99.90;;;;;;4171626;28;20151;-71
2022/10/10 08:38:09;;;;;;;4.22;2.53;;;16.90;99.90;;;;;;4176243;28;20488;-73
2022/10/10 08:40:15;;;;;;;6.13;2.92;;;17.00;99.90;;;;;;4169945;28;20036;-72
2022/10/10 08:42:28;;;;;;;5.75;2.30;;;17.10;99.90;;;;;;4170617;28;20112;-72
2022/10/10 08:44:38;;;;;;;5.07;2.67;;;17.20;99.90;;;;;;4171583;28;20032;-73
2022/10/10 08:46:45;;;;;;;4.93;2.38;;;17.10;99.90;;;;;;4165986;28;20442;-73
2022/10/10 08:48:48;;;;;;;7.50;3.78;;;17.20;99.90;;;;;;4169947;28;20136;-72
2022/10/10 08:50:55;;;;;;;3.70;2.28;;;17.20;99.90;;;;;;4167162;28;20037;-72
2022/10/10 08:53:02;;;;;;;4.20;2.30;;;17.20;99.90;;;;;;4176227;28;20029;-73
2022/10/10 08:55:15;;;;;;;5.68;2.90;;;17.30;99.90;;;;;;4167684;28;20044;-71
2022/10/10 08:57:25;;;;;;;6.70;2.45;;;17.40;99.90;;;;;;4169935;28;20503;-73
2022/10/10 08:59:32;;;;;;;5.82;2.60;;;17.50;99.90;;;;;;4167029;28;20040;-72
2022/10/10 09:01:35;;;;;;;5.40;2.63;;;17.50;99.90;;;;;;4155657;28;20433;-72
2022/10/10 09:03:42;;;;;;;7.30;2.63;;;17.60;99.90;;;;;;4163281;28;20094;-73
2022/10/10 09:06:03;;;;;;;4.53;2.38;;;17.60;99.90;;;;;;4169448;28;20046;-71
2022/10/10 09:08:29;;;;;;;7.25;2.58;;;17.70;99.90;;;;;;4173727;28;20033;-72
2022/10/10 09:10:54;;;;;;;9.63;2.95;;;17.80;99.90;;;;;;4163109;28;20642;-74
2022/10/10 09:13:05;;;;;;;5.18;2.95;;;17.90;99.90;;;;;;4155877;28;20025;-73
2022/10/10 09:15:29;;;;;;;5.03;2.50;;;17.90;99.90;;;;;;4168346;28;20038;-76
2022/10/10 09:17:55;;;;;;;7.53;2.92;;;17.90;99.90;;;;;;4154079;28;20052;-73
2022/10/10 09:20:16;;;;;;;7.95;2.47;;;17.90;99.90;;;;;;4152872;28;20036;-72
2022/10/10 09:22:21;;;;;;;4.10;2.30;;;17.90;99.90;;;;;;4168975;28;20049;-72
2022/10/10 09:24:36;;;;;;;8.60;3.20;;;17.90;99.90;;;;;;4172119;28;20033;-72
2022/10/10 09:26:45;;;;;;;6.32;2.50;;;18.00;99.90;;;;;;4166876;28;20037;-75
2022/10/10 09:29:04;;;;;;;4.57;2.70;;;17.90;99.90;;;;;;4165939;28;20037;-71
2022/10/10 09:31:13;;;;;;;2.60;2.03;;;18.00;99.90;;;;;;4169065;28;20492;-71
2022/10/10 09:33:22;;;;;;;5.85;2.40;;;18.10;99.90;;;;;;4168172;28;20030;-71
2022/10/10 09:35:28;;;;;;;5.88;2.80;;;18.10;99.90;;;;;;4156181;28;20045;-73
2022/10/10 09:37:34;;;;;;;7.10;3.05;;;18.10;99.90;;;;;;4171435;28;20037;-72
2022/10/10 09:39:47;;;;;;;5.47;2.47;;;18.20;99.90;;;;;;4181508;28;20044;-72
2022/10/10 09:41:59;;;;;;;6.22;2.60;;;18.30;99.90;;;;;;4183838;28;20039;-73
2022/10/10 09:44:09;;;;;;;7.72;2.80;;;18.30;99.90;;;;;;4183450;28;20045;-72
2022/10/10 09:46:10;;;;;;;9.75;2.97;;;18.40;99.90;;;;;;4167220;28;20037;-72
2022/10/10 09:48:11;;;;;;;4.95;2.45;;;18.30;99.90;;;;;;4171518;28;20601;-70
2022/10/10 09:50:15;;;;;;;6.10;2.47;;;18.40;99.90;;;;;;4171542;28;20032;-71
2022/10/10 09:52:27;;;;;;;4.35;2.40;;;18.50;99.90;;;;;;4178439;28;20424;-72
2022/10/10 09:54:27;;;;;;;5.22;2.33;;;18.60;99.90;;;;;;4183494;28;20032;-72
2022/10/10 09:56:39;;;;;;;5.65;2.45;;;18.60;99.90;;;;;;4188314;28;20449;-73
2022/10/10 09:58:43;;;;;;;5.35;2.67;;;18.70;99.90;;;;;;4164411;28;20104;-73
2022/10/10 10:00:43;;;;;;;8.27;2.70;;;18.80;99.90;;;;;;4167403;28;20151;-73
2022/10/10 10:03:04;;;;;;;14.43;3.03;;;18.90;99.90;;;;;;4169278;28;20037;-72
2022/10/10 10:05:26;;;;;;;4.90;2.58;;;18.90;99.90;;;;;;4172266;28;20064;-71
2022/10/10 10:07:28;;;;;;;7.28;2.40;;;19.00;99.90;;;;;;4169379;28;20048;-73
2022/10/10 10:09:29;;;;;;;8.80;3.00;;;19.10;99.90;;;;;;4169227;28;20040;-74
2022/10/10 10:11:35;;;;;;;10.27;2.95;;;19.10;99.90;;;;;;4173273;28;20025;-74
2022/10/10 10:13:36;;;;;;;6.57;2.70;;;19.10;99.90;;;;;;4170381;28;20063;-75
2022/10/10 10:15:37;;;;;;;11.18;2.83;;;19.10;99.90;;;;;;4170099;28;20045;-74
2022/10/10 10:17:38;;;;;;;4.78;2.63;;;19.10;99.90;;;;;;4170620;28;20488;-73
2022/10/10 10:19:41;;;;;;;4.90;2.15;;;19.00;99.90;;;;;;4167743;28;20056;-72
2022/10/10 10:21:50;;;;;;;6.40;2.85;;;19.00;99.90;;;;;;4163256;28;20417;-71
2022/10/10 10:23:59;;;;;;;8.20;2.70;;;19.00;99.90;;;;;;4172877;28;20040;-72
2022/10/10 10:26:01;;;;;;;5.43;2.15;;;19.00;99.90;;;;;;4169115;28;20034;-72
2022/10/10 10:28:11;;;;;;;7.22;2.05;;;19.00;99.90;;;;;;4162397;28;20036;-72
2022/10/10 10:30:25;;;;;;;7.60;2.65;;;19.00;99.90;;;;;;4159731;28;20033;-72
2022/10/10 10:32:49;;;;;;;6.28;2.45;;;19.10;99.90;;;;;;4168035;28;20458;-72
2022/10/10 10:34:54;;;;;;;9.93;2.28;;;19.20;99.90;;;;;;4164752;28;20053;-72
2022/10/10 10:37:00;;;;;;;7.72;2.47;;;19.20;99.90;;;;;;4171637;28;20099;-71
2022/10/10 10:39:41;;;;;;;4.60;2.45;;;19.20;99.90;;;;;;4167431;28;20095;-72
2022/10/10 10:41:51;;;;;;;7.20;2.33;;;19.20;99.90;;;;;;4128261;28;20113;-71
2022/10/10 10:44:14;;;;;;;6.25;2.30;;;19.20;99.90;;;;;;4157582;28;20038;-72
2022/10/10 10:46:26;;;;;;;5.95;2.58;;;19.10;99.90;;;;;;4168459;28;20032;-72
2022/10/10 10:48:31;;;;;;;;;;;19.10;99.90;;;;;;4174609;28;20025;-71